地図

経路データ

SID SEASON NUMBER BASIN SUBBASIN NAME ISO_TIME NATURE LAT LON WMO_WIND WMO_PRES WMO_AGENCY TRACK_TYPE DIST2LAND LANDFALL IFLAG USA_AGENCY USA_ATCF_ID USA_LAT USA_LON USA_RECORD USA_STATUS USA_WIND USA_PRES USA_SSHS USA_R34_NE USA_R34_SE USA_R34_SW USA_R34_NW USA_R50_NE USA_R50_SE USA_R50_SW USA_R50_NW USA_R64_NE USA_R64_SE USA_R64_SW USA_R64_NW USA_POCI USA_ROCI USA_RMW USA_EYE TOKYO_LAT TOKYO_LON TOKYO_GRADE TOKYO_WIND TOKYO_PRES TOKYO_R50_DIR TOKYO_R50_LONG TOKYO_R50_SHORT TOKYO_R30_DIR TOKYO_R30_LONG TOKYO_R30_SHORT TOKYO_LAND CMA_LAT CMA_LON CMA_CAT CMA_WIND CMA_PRES HKO_LAT HKO_LON HKO_CAT HKO_WIND HKO_PRES NEWDELHI_LAT NEWDELHI_LON NEWDELHI_GRADE NEWDELHI_WIND NEWDELHI_PRES NEWDELHI_CI NEWDELHI_DP NEWDELHI_POCI REUNION_LAT REUNION_LON REUNION_TYPE REUNION_WIND REUNION_PRES REUNION_TNUM REUNION_CI REUNION_RMW REUNION_R34_NE REUNION_R34_SE REUNION_R34_SW REUNION_R34_NW REUNION_R50_NE REUNION_R50_SE REUNION_R50_SW REUNION_R50_NW REUNION_R64_NE REUNION_R64_SE REUNION_R64_SW REUNION_R64_NW BOM_LAT BOM_LON BOM_TYPE BOM_WIND BOM_PRES BOM_TNUM BOM_CI BOM_RMW BOM_R34_NE BOM_R34_SE BOM_R34_SW BOM_R34_NW BOM_R50_NE BOM_R50_SE BOM_R50_SW BOM_R50_NW BOM_R64_NE BOM_R64_SE BOM_R64_SW BOM_R64_NW BOM_ROCI BOM_POCI BOM_EYE BOM_POS_METHOD BOM_PRES_METHOD NADI_LAT NADI_LON NADI_CAT NADI_WIND NADI_PRES WELLINGTON_LAT WELLINGTON_LON WELLINGTON_WIND WELLINGTON_PRES DS824_LAT DS824_LON DS824_STAGE DS824_WIND DS824_PRES TD9636_LAT TD9636_LON TD9636_STAGE TD9636_WIND TD9636_PRES TD9635_LAT TD9635_LON TD9635_WIND TD9635_PRES TD9635_ROCI NEUMANN_LAT NEUMANN_LON NEUMANN_CLASS NEUMANN_WIND NEUMANN_PRES MLC_LAT MLC_LON MLC_CLASS MLC_WIND MLC_PRES USA_GUST BOM_GUST BOM_GUST_PER REUNION_GUST REUNION_GUST_PER USA_SEAHGT USA_SEARAD_NE USA_SEARAD_SE USA_SEARAD_SW USA_SEARAD_NW STORM_SPEED STORM_DIR
1995239N15327 1995 55 NA NA KAREN 1995-08-26 12:00:00 TS 15.4000 -32.7000 30 1009 hurdat_atl main 1634 1634 O_____________ hurdat_atl AL121995 15.4000 -32.7000 TD 30 1009 -1 12 275
1995239N15327 1995 55 NA NA KAREN 1995-08-26 15:00:00 TS 15.4528 -33.3374 main 1698 1698 P_____________ AL121995 15.4528 -33.3374 TD 30 1008 -1 13 275
1995239N15327 1995 55 NA NA KAREN 1995-08-26 18:00:00 TS 15.5000 -34.0000 30 1008 hurdat_atl main 1773 1773 O_____________ hurdat_atl AL121995 15.5000 -34.0000 TD 30 1008 -1 13 274
1995239N15327 1995 55 NA NA KAREN 1995-08-26 21:00:00 TS 15.5424 -34.7001 main 1848 1848 P_____________ AL121995 15.5424 -34.7001 TD 30 1008 -1 14 274
1995239N15327 1995 55 NA NA KAREN 1995-08-27 00:00:00 TS 15.6000 -35.4000 30 1008 hurdat_atl main 1924 1924 O_____________ hurdat_atl AL121995 15.6000 -35.4000 TD 30 1008 -1 13 276
1995239N15327 1995 55 NA NA KAREN 1995-08-27 03:00:00 TS 15.6847 -36.0576 main 1999 1999 P_____________ AL121995 15.6847 -36.0576 TD 30 1007 -1 13 279
1995239N15327 1995 55 NA NA KAREN 1995-08-27 06:00:00 TS 15.8000 -36.7000 30 1007 hurdat_atl main 2051 2007 O_____________ hurdat_atl AL121995 15.8000 -36.7000 TD 30 1007 -1 13 282
1995239N15327 1995 55 NA NA KAREN 1995-08-27 09:00:00 TS 15.9498 -37.3500 main 2007 1964 P_____________ AL121995 15.9498 -37.3500 TD 30 1007 -1 13 284
1995239N15327 1995 55 NA NA KAREN 1995-08-27 12:00:00 TS 16.1000 -38.0000 30 1007 hurdat_atl main 1964 1924 O_____________ hurdat_atl AL121995 16.1000 -38.0000 TD 30 1007 -1 13 282
1995239N15327 1995 55 NA NA KAREN 1995-08-27 15:00:00 TS 16.2074 -38.6651 main 1916 1877 P_____________ AL121995 16.2074 -38.6651 TD 30 1006 -1 13 279
1995239N15327 1995 55 NA NA KAREN 1995-08-27 18:00:00 TS 16.3000 -39.3000 30 1006 hurdat_atl main 1877 1847 O_____________ hurdat_atl AL121995 16.3000 -39.3000 TD 30 1006 -1 12 280
1995239N15327 1995 55 NA NA KAREN 1995-08-27 21:00:00 TS 16.4072 -39.8650 main 1840 1812 P_____________ AL121995 16.4072 -39.8650 TD 30 1006 -1 11 281
1995239N15327 1995 55 NA NA KAREN 1995-08-28 00:00:00 TS 16.5000 -40.4000 30 1006 hurdat_atl main 1812 1776 O_____________ hurdat_atl AL121995 16.5000 -40.4000 TD 30 1006 -1 11 277
1995239N15327 1995 55 NA NA KAREN 1995-08-28 03:00:00 TS 16.5424 -40.9502 main 1769 1744 P_____________ AL121995 16.5424 -40.9502 TD 32 1005 -1 11 275
1995239N15327 1995 55 NA NA KAREN 1995-08-28 06:00:00 TS 16.6000 -41.5000 35 1005 hurdat_atl main 1744 1720 O_____________ hurdat_atl AL121995 16.6000 -41.5000 TS 35 1005 0 11 280
1995239N15327 1995 55 NA NA KAREN 1995-08-28 09:00:00 TS 16.7199 -42.0576 main 1713 1697 P_____________ AL121995 16.7199 -42.0576 TS 37 1004 0 11 286
1995239N15327 1995 55 NA NA KAREN 1995-08-28 12:00:00 TS 16.9000 -42.6000 40 1003 hurdat_atl main 1700 1687 O_____________ hurdat_atl AL121995 16.9000 -42.6000 TS 40 1003 0 11 293
1995239N15327 1995 55 NA NA KAREN 1995-08-28 15:00:00 TS 17.1498 -43.1074 main 1687 1678 P_____________ AL121995 17.1498 -43.1074 TS 42 1002 0 11 298
1995239N15327 1995 55 NA NA KAREN 1995-08-28 18:00:00 TS 17.4000 -43.6000 45 1001 hurdat_atl main 1681 1665 O_____________ hurdat_atl AL121995 17.4000 -43.6000 TS 45 1001 0 10 294
1995239N15327 1995 55 NA NA KAREN 1995-08-28 21:00:00 TS 17.5799 -44.1076 main 1668 1648 P_____________ AL121995 17.5799 -44.1076 TS 45 1000 0 10 287
1995239N15327 1995 55 NA NA KAREN 1995-08-29 00:00:00 TS 17.7000 -44.6000 45 1000 hurdat_atl main 1648 1625 O_____________ hurdat_atl AL121995 17.7000 -44.6000 TS 45 1000 0 9 281
1995239N15327 1995 55 NA NA KAREN 1995-08-29 03:00:00 TS 17.7498 -45.0578 main 1620 1608 P_____________ AL121995 17.7498 -45.0578 TS 45 1000 0 9 277
1995239N15327 1995 55 NA NA KAREN 1995-08-29 06:00:00 TS 17.8000 -45.5000 45 1000 hurdat_atl main 1608 1598 O_____________ hurdat_atl AL121995 17.8000 -45.5000 TS 45 1000 0 9 282
1995239N15327 1995 55 NA NA KAREN 1995-08-29 09:00:00 TS 17.9274 -45.9500 main 1593 1588 P_____________ AL121995 17.9274 -45.9500 TS 45 1000 0 9 289
1995239N15327 1995 55 NA NA KAREN 1995-08-29 12:00:00 TS 18.1000 -46.4000 45 1000 hurdat_atl main 1593 1584 O_____________ hurdat_atl AL121995 18.1000 -46.4000 TS 45 1000 0 9 293
1995239N15327 1995 55 NA NA KAREN 1995-08-29 15:00:00 TS 18.2849 -46.8501 main 1590 1586 P_____________ AL121995 18.2849 -46.8501 TS 45 1000 0 9 295
1995239N15327 1995 55 NA NA KAREN 1995-08-29 18:00:00 TS 18.5000 -47.3000 45 1001 hurdat_atl main 1594 1590 O_____________ hurdat_atl AL121995 18.5000 -47.3000 TS 45 1001 0 10 299
1995239N15327 1995 55 NA NA KAREN 1995-08-29 21:00:00 TS 18.7649 -47.7499 main 1607 1597 P_____________ AL121995 18.7649 -47.7499 TS 45 1001 0 10 300
1995239N15327 1995 55 NA NA KAREN 1995-08-30 00:00:00 TS 19.0000 -48.2000 45 1002 hurdat_atl main 1604 1597 O_____________ hurdat_atl AL121995 19.0000 -48.2000 TS 45 1002 0 9 293
1995239N15327 1995 55 NA NA KAREN 1995-08-30 03:00:00 TS 19.1224 -48.6577 main 1593 1588 P_____________ AL121995 19.1224 -48.6577 TS 42 1002 0 9 283
1995239N15327 1995 55 NA NA KAREN 1995-08-30 06:00:00 TS 19.2000 -49.1000 40 1003 hurdat_atl main 1588 1565 O_____________ hurdat_atl AL121995 19.2000 -49.1000 TS 40 1003 0 8 282
1995239N15327 1995 55 NA NA KAREN 1995-08-30 09:00:00 TS 19.2999 -49.5150 main 1565 1538 P_____________ AL121995 19.2999 -49.5150 TS 40 1003 0 8 285
1995239N15327 1995 55 NA NA KAREN 1995-08-30 12:00:00 TS 19.4000 -49.9000 40 1003 hurdat_atl main 1538 1512 O_____________ hurdat_atl AL121995 19.4000 -49.9000 TS 40 1003 0 7 285
1995239N15327 1995 55 NA NA KAREN 1995-08-30 15:00:00 TS 19.4850 -50.2726 main 1512 1495 P_____________ AL121995 19.4850 -50.2726 TS 40 1003 0 7 287
1995239N15327 1995 55 NA NA KAREN 1995-08-30 18:00:00 TS 19.6000 -50.6000 40 1004 hurdat_atl main 1495 1486 O_____________ hurdat_atl AL121995 19.6000 -50.6000 TS 40 1004 0 6 299
1995239N15327 1995 55 NA NA KAREN 1995-08-30 21:00:00 TS 19.7924 -50.8650 main 1486 1485 P_____________ AL121995 19.7924 -50.8650 TS 40 1004 0 6 310
1995239N15327 1995 55 NA NA KAREN 1995-08-31 00:00:00 TS 20.0000 -51.1000 40 1004 hurdat_atl main 1485 1478 O_____________ hurdat_atl AL121995 20.0000 -51.1000 TS 40 1004 0 6 309
1995239N15327 1995 55 NA NA KAREN 1995-08-31 03:00:00 TS 20.1725 -51.3650 main 1478 1471 P_____________ AL121995 20.1725 -51.3650 TS 40 1003 0 6 303
1995239N15327 1995 55 NA NA KAREN 1995-08-31 06:00:00 TS 20.3000 -51.6000 40 1003 hurdat_atl main 1471 1457 O_____________ hurdat_atl AL121995 20.3000 -51.6000 TS 40 1003 0 4 294
1995239N15327 1995 55 NA NA KAREN 1995-08-31 09:00:00 TS 20.3425 -51.7726 main 1457 1453 P_____________ AL121995 20.3425 -51.7726 TS 40 1002 0 3 290
1995239N15327 1995 55 NA NA KAREN 1995-08-31 12:00:00 TS 20.4000 -51.9000 40 1002 hurdat_atl main 1453 1444 O_____________ hurdat_atl AL121995 20.4000 -51.9000 TS 40 1002 0 3 313
1995239N15327 1995 55 NA NA KAREN 1995-08-31 15:00:00 TS 20.5475 -52.0076 main 1444 1435 P_____________ AL121995 20.5475 -52.0076 TS 40 1001 0 4 335
1995239N15327 1995 55 NA NA KAREN 1995-08-31 18:00:00 TS 20.8000 -52.1000 40 1001 hurdat_atl main 1438 1432 O_____________ hurdat_atl AL121995 20.8000 -52.1000 TS 40 1001 0 6 344
1995239N15327 1995 55 NA NA KAREN 1995-08-31 21:00:00 TS 21.1325 -52.1853 main 1433 1429 P_____________ AL121995 21.1325 -52.1853 TS 40 1001 0 8 347
1995239N15327 1995 55 NA NA KAREN 1995-09-01 00:00:00 TS 21.6000 -52.3000 40 1001 hurdat_atl main 1434 1427 O_____________ hurdat_atl AL121995 21.6000 -52.3000 TS 40 1001 0 11 346
1995239N15327 1995 55 NA NA KAREN 1995-09-01 03:00:00 TS 22.1825 -52.4703 main 1429 1425 P_____________ AL121995 22.1825 -52.4703 TS 40 1001 0 14 344
1995239N15327 1995 55 NA NA KAREN 1995-09-01 06:00:00 TS 22.9000 -52.7000 40 1001 hurdat_atl main 1432 1429 O_____________ hurdat_atl AL121995 22.9000 -52.7000 TS 40 1001 0 16 344
1995239N15327 1995 55 NA NA KAREN 1995-09-01 09:00:00 TS 23.6974 -52.9559 main 1434 1434 P_____________ AL121995 23.6974 -52.9559 TS 37 1001 0 18 342
1995239N15327 1995 55 NA NA KAREN 1995-09-01 12:00:00 TS 24.6000 -53.3000 35 1001 hurdat_atl main 1447 1447 O_____________ hurdat_atl AL121995 24.6000 -53.3000 TS 35 1001 0 20 339
1995239N15327 1995 55 NA NA KAREN 1995-09-01 15:00:00 TS 25.5924 -53.7478 main 1465 1457 P_____________ AL121995 25.5924 -53.7478 TS 35 1001 0 22 336
1995239N15327 1995 55 NA NA KAREN 1995-09-01 18:00:00 TS 26.6000 -54.3000 35 1001 hurdat_atl main 1477 1476 O_____________ hurdat_atl AL121995 26.6000 -54.3000 TS 35 1001 0 22 332
1995239N15327 1995 55 NA NA KAREN 1995-09-01 21:00:00 TS 27.5372 -54.9132 main 1493 1493 P_____________ AL121995 27.5372 -54.9132 TS 35 1001 0 21 327
1995239N15327 1995 55 NA NA KAREN 1995-09-02 00:00:00 TS 28.4000 -55.6000 35 1001 hurdat_atl main 1511 1511 O_____________ hurdat_atl AL121995 28.4000 -55.6000 TS 35 1001 0 21 324
1995239N15327 1995 55 NA NA KAREN 1995-09-02 03:00:00 TS 29.1864 -56.2918 main 1531 1531 P_____________ AL121995 29.1864 -56.2918 TS 35 1001 0 20 319
1995239N15327 1995 55 NA NA KAREN 1995-09-02 06:00:00 TS 29.9000 -57.1000 35 1001 hurdat_atl main 1546 1546 O_____________ hurdat_atl AL121995 29.9000 -57.1000 TS 35 1001 0 21 312
1995239N15327 1995 55 NA NA KAREN 1995-09-02 09:00:00 TS 30.5714 -58.0616 main 1558 1473 P_____________ AL121995 30.5714 -58.0616 TS 32 1001 -1 22 306
1995239N15327 1995 55 NA NA KAREN 1995-09-02 12:00:00 TS 31.2000 -59.2000 30 1001 hurdat_atl main 1470 1363 O_____________ hurdat_atl AL121995 31.2000 -59.2000 TD 30 1001 -1 26 299
1995239N15327 1995 55 NA NA KAREN 1995-09-02 15:00:00 TS 31.8567 -60.7335 main 1352 1258 P_____________ AL121995 31.8567 -60.7335 TD 30 1001 -1 26 298
1995239N15327 1995 55 NA NA KAREN 1995-09-02 18:00:00 TS 32.4000 -61.9000 30 1001 hurdat_atl main 1258 1220 O_____________ hurdat_atl AL121995 32.4000 -61.9000 TD 30 1001 -1 14 309
1995239N15327 1995 55 NA NA KAREN 1995-09-02 21:00:00 TS 32.7556 -62.0286 main 1215 1211 P_____________ AL121995 32.7556 -62.0286 TD 30 1001 -1 7 29
1995239N15327 1995 55 NA NA KAREN 1995-09-03 00:00:00 TS 33.0000 -61.5000 30 1002 hurdat_atl main 1214 O_____________ hurdat_atl AL121995 33.0000 -61.5000 TD 30 1002 -1 10 61

IBTrACS Databaseについて

本データベースは、米国NOAAが公開する1842年以降の世界の熱帯低気圧のベストトラックデータアーカイブInternational Best Track Archive for Climate Stewardship (IBTrACS)を、ウェブで閲覧しやすい形式に変換したものです。

最終更新日:2021-10-27